Time;durP1;ratioP1;P1;durP2;ratioP2;P2;SDS_P1;SDS_P2;PMS_P1;PMS_P2;Temp;Humidity;BMP_temperature;BMP_pressure;BME280_temperature;BME280_humidity;BME280_pressure;Samples;Min_cycle;Max_cycle;Signal;HPM_P1;HPM_P2
2022/08/21 00:00:21;;;;;;;6.07;2.03;;;;;;;;;;4404727;32;20566;-80
2022/08/21 00:02:54;;;;;;;9.15;2.50;;;;;;;;;;4405014;32;20564;-82
2022/08/21 00:05:26;;;;;;;7.78;2.97;;;;;;;;;;4404639;32;20630;-83
2022/08/21 00:07:54;;;;;;;9.13;2.50;;;;;;;;;;4404952;32;20538;-85
2022/08/21 00:10:25;;;;;;;5.60;2.42;;;;;;;;;;4405133;32;20900;-82
2022/08/21 00:13:01;;;;;;;6.55;2.20;;;;;;;;;;4404376;32;20719;-83
2022/08/21 00:16:01;;;;;;;7.47;2.78;;;;;;;;;;4404039;32;20657;-83
2022/08/21 00:18:30;;;;;;;4.87;2.80;;;;;;;;;;4387409;32;20645;-83
2022/08/21 00:21:02;;;;;;;7.70;2.87;;;;;;;;;;4388023;32;20652;-83
2022/08/21 00:23:30;;;;;;;7.55;2.40;;;;;;;;;;4387355;32;20610;-82
2022/08/21 00:25:58;;;;;;;5.82;2.25;;;;;;;;;;4386992;32;20571;-83
2022/08/21 00:28:26;;;;;;;3.40;2.10;;;;;;;;;;4387233;32;20594;-83
2022/08/21 00:30:54;;;;;;;9.43;2.58;;;;;;;;;;4387559;32;20233;-82
2022/08/21 00:33:22;;;;;;;9.50;2.90;;;;;;;;;;4389821;32;20462;-83
2022/08/21 00:35:49;;;;;;;7.25;2.78;;;;;;;;;;4387602;32;20539;-83
2022/08/21 00:38:20;;;;;;;8.25;3.03;;;;;;;;;;4386290;32;20464;-83
2022/08/21 00:40:53;;;;;;;7.68;2.70;;;;;;;;;;4386771;32;20214;-83
2022/08/21 00:43:25;;;;;;;11.75;2.62;;;;;;;;;;4386660;32;20245;-83
2022/08/21 00:45:53;;;;;;;9.18;2.20;;;;;;;;;;4386580;32;20686;-82
2022/08/21 00:48:22;;;;;;;8.70;2.37;;;;;;;;;;4386110;32;20295;-81
2022/08/21 00:50:54;;;;;;;7.57;2.78;;;;;;;;;;4385967;32;20593;-83
2022/08/21 00:53:24;;;;;;;6.53;2.87;;;;;;;;;;4386289;32;20308;-83
2022/08/21 00:55:52;;;;;;;8.63;2.72;;;;;;;;;;4393626;32;20547;-82
2022/08/21 00:58:20;;;;;;;7.57;3.28;;;;;;;;;;4403346;32;20305;-82
2022/08/21 01:00:49;;;;;;;11.25;3.67;;;;;;;;;;4403260;32;20317;-82
2022/08/21 01:03:20;;;;;;;17.73;5.55;;;;;;;;;;4403214;32;20688;-83
2022/08/21 01:05:47;;;;;;;11.50;5.22;;;;;;;;;;4403235;32;20585;-83
2022/08/21 01:08:16;;;;;;;9.57;4.18;;;;;;;;;;4403113;32;20265;-83
2022/08/21 01:10:46;;;;;;;8.82;3.12;;;;;;;;;;4403093;32;20284;-80
2022/08/21 01:13:16;;;;;;;9.18;3.12;;;;;;;;;;4403241;32;20574;-82
2022/08/21 01:15:47;;;;;;;12.37;3.67;;;;;;;;;;4402972;32;20218;-82
2022/08/21 01:18:16;;;;;;;6.85;2.42;;;;;;;;;;4403185;32;20228;-82
2022/08/21 01:20:46;;;;;;;5.28;2.60;;;;;;;;;;4403368;32;20667;-83
2022/08/21 01:23:15;;;;;;;9.10;3.05;;;;;;;;;;4403518;32;20730;-82
2022/08/21 01:25:43;;;;;;;5.15;2.55;;;;;;;;;;4403152;32;20593;-82
2022/08/21 01:28:16;;;;;;;4.07;2.22;;;;;;;;;;4403115;32;20556;-81
2022/08/21 01:30:44;;;;;;;10.23;2.58;;;;;;;;;;4403265;32;20629;-82
2022/08/21 01:33:12;;;;;;;8.77;3.35;;;;;;;;;;4403559;32;20591;-81
2022/08/21 01:35:40;;;;;;;6.72;2.95;;;;;;;;;;4403137;32;20578;-82
2022/08/21 01:38:08;;;;;;;9.38;2.85;;;;;;;;;;4403465;32;20562;-83
2022/08/21 01:40:37;;;;;;;10.43;3.00;;;;;;;;;;4403129;32;20249;-83
2022/08/21 01:43:05;;;;;;;5.78;2.22;;;;;;;;;;4402780;32;20265;-83
2022/08/21 01:45:32;;;;;;;7.47;3.15;;;;;;;;;;4402993;32;20300;-82
2022/08/21 01:48:00;;;;;;;5.10;2.75;;;;;;;;;;4402727;32;20629;-82
2022/08/21 01:50:27;;;;;;;5.43;2.65;;;;;;;;;;4401821;32;20536;-82
2022/08/21 01:52:55;;;;;;;6.47;3.20;;;;;;;;;;4403021;32;20547;-82
2022/08/21 01:55:22;;;;;;;10.50;3.40;;;;;;;;;;4402984;32;20565;-81
2022/08/21 01:57:52;;;;;;;13.13;3.25;;;;;;;;;;4402777;32;20546;-82
2022/08/21 02:00:23;;;;;;;7.65;3.25;;;;;;;;;;4402637;32;20595;-83
2022/08/21 02:02:51;;;;;;;10.10;2.72;;;;;;;;;;4405577;32;20641;-85
2022/08/21 02:05:20;;;;;;;6.65;3.08;;;;;;;;;;4405616;32;20547;-82
2022/08/21 02:07:50;;;;;;;9.60;3.22;;;;;;;;;;4405936;32;20609;-84
2022/08/21 02:10:21;;;;;;;6.15;3.33;;;;;;;;;;4405672;32;20342;-83
2022/08/21 02:12:49;;;;;;;10.93;3.65;;;;;;;;;;4406123;32;20539;-83
2022/08/21 02:15:18;;;;;;;14.68;3.25;;;;;;;;;;4405466;32;20554;-84
2022/08/21 02:17:48;;;;;;;8.05;2.85;;;;;;;;;;4405968;32;20304;-83
2022/08/21 02:20:18;;;;;;;8.43;3.25;;;;;;;;;;4405542;32;20425;-82
2022/08/21 02:22:46;;;;;;;10.52;3.25;;;;;;;;;;4405850;32;20261;-83
2022/08/21 02:25:14;;;;;;;11.40;3.58;;;;;;;;;;4405451;32;20342;-83
2022/08/21 02:27:44;;;;;;;11.05;3.33;;;;;;;;;;4405538;32;20588;-82
2022/08/21 02:30:13;;;;;;;10.02;3.53;;;;;;;;;;4405228;32;20618;-83
2022/08/21 02:32:42;;;;;;;8.55;3.40;;;;;;;;;;4405450;32;20558;-83
2022/08/21 02:35:11;;;;;;;5.28;3.20;;;;;;;;;;4405191;32;20674;-83
2022/08/21 02:37:46;;;;;;;9.70;3.35;;;;;;;;;;4405220;32;20530;-83
2022/08/21 02:40:15;;;;;;;11.82;3.30;;;;;;;;;;4405262;32;20692;-83
2022/08/21 02:42:43;;;;;;;3.40;3.00;;;;;;;;;;4405315;32;20214;-83
2022/08/21 02:45:11;;;;;;;5.65;3.10;;;;;;;;;;4405140;32;20610;-83
2022/08/21 02:47:38;;;;;;;11.57;3.65;;;;;;;;;;4405566;32;20600;-83
2022/08/21 02:50:08;;;;;;;8.35;3.25;;;;;;;;;;4405062;32;20640;-83
2022/08/21 02:52:36;;;;;;;12.70;3.28;;;;;;;;;;4405117;32;20546;-83
2022/08/21 02:55:05;;;;;;;9.02;3.62;;;;;;;;;;4404985;32;20649;-81
2022/08/21 02:57:32;;;;;;;9.27;4.22;;;;;;;;;;4404908;32;20602;-81
2022/08/21 03:00:00;;;;;;;9.25;3.72;;;;;;;;;;4405070;32;20581;-82
2022/08/21 03:02:28;;;;;;;6.50;3.45;;;;;;;;;;4405019;32;20690;-81
2022/08/21 03:04:55;;;;;;;5.53;3.45;;;;;;;;;;4405008;32;20642;-82
2022/08/21 03:07:24;;;;;;;8.73;2.70;;;;;;;;;;4404935;32;20557;-82
2022/08/21 03:09:52;;;;;;;8.43;3.10;;;;;;;;;;4404890;32;20617;-82
2022/08/21 03:12:22;;;;;;;8.13;3.62;;;;;;;;;;4405153;32;20547;-82
2022/08/21 03:14:50;;;;;;;8.02;3.30;;;;;;;;;;4404475;32;20624;-82
2022/08/21 03:17:17;;;;;;;10.57;3.83;;;;;;;;;;4405084;32;20633;-82
2022/08/21 03:19:45;;;;;;;9.30;3.55;;;;;;;;;;4404611;32;20578;-82
2022/08/21 03:22:12;;;;;;;7.57;3.28;;;;;;;;;;4404580;32;20509;-81
2022/08/21 03:24:41;;;;;;;7.37;3.83;;;;;;;;;;4404680;32;20649;-81
2022/08/21 03:27:09;;;;;;;8.68;3.50;;;;;;;;;;4404379;32;20325;-81
2022/08/21 03:29:36;;;;;;;3.95;3.50;;;;;;;;;;4404220;32;20603;-81
2022/08/21 03:32:04;;;;;;;13.27;3.65;;;;;;;;;;4404483;32;20566;-82
2022/08/21 03:34:31;;;;;;;12.40;4.50;;;;;;;;;;4404399;32;20615;-82
2022/08/21 03:36:59;;;;;;;6.57;4.70;;;;;;;;;;4404379;32;20268;-82
2022/08/21 03:39:26;;;;;;;5.80;4.40;;;;;;;;;;4404292;32;20619;-82
2022/08/21 03:41:55;;;;;;;11.70;5.03;;;;;;;;;;4404517;32;20359;-82
2022/08/21 03:44:23;;;;;;;8.18;4.93;;;;;;;;;;4404462;32;20659;-82
2022/08/21 03:46:51;;;;;;;10.77;5.85;;;;;;;;;;4404244;32;20528;-82
2022/08/21 03:49:18;;;;;;;12.43;5.82;;;;;;;;;;4404140;32;20589;-82
2022/08/21 03:51:46;;;;;;;15.02;4.97;;;;;;;;;;4404120;32;20582;-82
2022/08/21 03:54:13;;;;;;;12.70;5.78;;;;;;;;;;4404213;32;20627;-81
2022/08/21 03:56:41;;;;;;;18.50;5.85;;;;;;;;;;4404351;32;20591;-82
2022/08/21 03:59:10;;;;;;;13.30;4.78;;;;;;;;;;4404075;32;20653;-83
2022/08/21 04:01:38;;;;;;;18.08;5.70;;;;;;;;;;4404428;32;20612;-81
2022/08/21 04:04:09;;;;;;;10.98;5.97;;;;;;;;;;4403956;32;20610;-82
2022/08/21 04:06:36;;;;;;;13.35;5.70;;;;;;;;;;4404307;32;20579;-82
2022/08/21 04:09:04;;;;;;;19.65;6.12;;;;;;;;;;4403997;32;20596;-82
2022/08/21 04:11:31;;;;;;;10.18;6.57;;;;;;;;;;4403776;32;20206;-82
2022/08/21 04:13:59;;;;;;;10.60;6.15;;;;;;;;;;4403806;32;20350;-81
2022/08/21 04:16:28;;;;;;;10.07;4.93;;;;;;;;;;4403715;32;20233;-82
2022/08/21 04:18:57;;;;;;;9.95;4.37;;;;;;;;;;4404082;32;20598;-81
2022/08/21 04:21:25;;;;;;;11.10;4.47;;;;;;;;;;4403131;32;20706;-81
2022/08/21 04:23:55;;;;;;;11.45;4.47;;;;;;;;;;4403424;32;20570;-82
2022/08/21 04:26:23;;;;;;;9.07;4.25;;;;;;;;;;4404424;32;20651;-81
2022/08/21 04:28:50;;;;;;;12.00;5.47;;;;;;;;;;4403891;32;20241;-82
2022/08/21 04:31:18;;;;;;;7.80;4.78;;;;;;;;;;4403660;32;20560;-82
2022/08/21 04:33:47;;;;;;;11.48;5.95;;;;;;;;;;4403479;32;20707;-82
2022/08/21 04:36:14;;;;;;;11.10;7.20;;;;;;;;;;4403649;32;20681;-82
2022/08/21 04:38:43;;;;;;;8.55;6.85;;;;;;;;;;4403449;32;20271;-82
2022/08/21 04:41:11;;;;;;;9.95;7.28;;;;;;;;;;4403478;32;20645;-82
2022/08/21 04:43:40;;;;;;;8.25;5.90;;;;;;;;;;4403618;32;20629;-82
2022/08/21 04:46:08;;;;;;;9.88;5.10;;;;;;;;;;4403537;32;20538;-82
2022/08/21 04:48:35;;;;;;;10.23;6.12;;;;;;;;;;4403566;32;20660;-83
2022/08/21 04:51:08;;;;;;;15.38;6.40;;;;;;;;;;4403585;32;20536;-82
2022/08/21 04:53:39;;;;;;;9.65;5.35;;;;;;;;;;4403810;32;20717;-82
2022/08/21 04:56:10;;;;;;;13.45;4.97;;;;;;;;;;4403329;32;20562;-82
2022/08/21 04:58:39;;;;;;;12.63;4.97;;;;;;;;;;4403367;32;20595;-81
2022/08/21 05:01:11;;;;;;;11.12;4.90;;;;;;;;;;4403467;32;20266;-88
2022/08/21 05:03:40;;;;;;;12.52;5.30;;;;;;;;;;4403496;32;20562;-82
2022/08/21 05:06:13;;;;;;;9.63;5.10;;;;;;;;;;4403428;32;20624;-83
2022/08/21 05:08:43;;;;;;;14.87;6.18;;;;;;;;;;4403571;32;20591;-82
2022/08/21 05:11:11;;;;;;;11.32;6.05;;;;;;;;;;4403360;32;20676;-83
2022/08/21 05:13:40;;;;;;;18.35;6.25;;;;;;;;;;4403344;32;20613;-82
2022/08/21 05:16:07;;;;;;;9.65;5.50;;;;;;;;;;4403165;32;20267;-82
2022/08/21 05:18:35;;;;;;;11.18;5.90;;;;;;;;;;4403192;32;20618;-82
2022/08/21 05:21:04;;;;;;;8.43;5.93;;;;;;;;;;4403226;32;20551;-82
2022/08/21 05:23:33;;;;;;;8.27;5.68;;;;;;;;;;4403394;32;20543;-82
2022/08/21 05:26:00;;;;;;;12.02;5.82;;;;;;;;;;4403290;32;20375;-83
2022/08/21 05:28:28;;;;;;;9.50;6.18;;;;;;;;;;4403608;32;20571;-82
2022/08/21 05:30:56;;;;;;;11.07;6.25;;;;;;;;;;4403116;32;20740;-82
2022/08/21 05:33:23;;;;;;;8.40;5.80;;;;;;;;;;4403162;32;20322;-81
2022/08/21 05:35:51;;;;;;;10.50;6.15;;;;;;;;;;4402990;32;20674;-82
2022/08/21 05:38:19;;;;;;;9.85;6.57;;;;;;;;;;4405932;32;20553;-82
2022/08/21 05:40:48;;;;;;;11.45;7.68;;;;;;;;;;4406273;32;20675;-85
2022/08/21 05:43:16;;;;;;;15.35;7.03;;;;;;;;;;4406313;32;20618;-85
2022/08/21 05:45:44;;;;;;;9.32;5.62;;;;;;;;;;4405975;32;20645;-83
2022/08/21 05:48:13;;;;;;;9.43;6.87;;;;;;;;;;4405950;32;20529;-84
2022/08/21 05:50:41;;;;;;;10.45;8.93;;;;;;;;;;4405963;32;20316;-85
2022/08/21 05:53:09;;;;;;;16.73;7.90;;;;;;;;;;4405955;32;20621;-84
2022/08/21 05:55:37;;;;;;;15.73;9.00;;;;;;;;;;4406087;32;20688;-86
2022/08/21 05:58:07;;;;;;;12.63;8.45;;;;;;;;;;4406142;32;20614;-84
2022/08/21 06:00:34;;;;;;;13.23;7.05;;;;;;;;;;4405836;32;20687;-85
2022/08/21 06:03:02;;;;;;;8.93;7.37;;;;;;;;;;4405720;32;20274;-88
2022/08/21 06:05:30;;;;;;;8.18;6.35;;;;;;;;;;4405667;32;20642;-84
2022/08/21 06:07:58;;;;;;;7.78;6.57;;;;;;;;;;4405889;32;20202;-84
2022/08/21 06:10:25;;;;;;;12.73;6.93;;;;;;;;;;4404775;32;20598;-84
2022/08/21 06:12:56;;;;;;;14.15;6.00;;;;;;;;;;4406049;32;20574;-85
2022/08/21 06:15:25;;;;;;;12.32;6.75;;;;;;;;;;4406062;32;20676;-85
2022/08/21 06:17:54;;;;;;;14.60;8.80;;;;;;;;;;4406038;32;20647;-85
2022/08/21 06:20:22;;;;;;;14.90;7.72;;;;;;;;;;4405619;32;20372;-84
2022/08/21 06:22:49;;;;;;;20.08;7.80;;;;;;;;;;4405741;32;20507;-83
2022/08/21 06:25:18;;;;;;;10.23;7.10;;;;;;;;;;4405655;32;20795;-82
2022/08/21 06:27:46;;;;;;;15.68;8.05;;;;;;;;;;4405795;32;20542;-83
2022/08/21 06:30:15;;;;;;;12.23;7.28;;;;;;;;;;4405540;32;20619;-82
2022/08/21 06:32:45;;;;;;;13.18;7.50;;;;;;;;;;4405609;32;20578;-84
2022/08/21 06:35:13;;;;;;;11.05;7.05;;;;;;;;;;4405698;32;20252;-85
2022/08/21 06:37:41;;;;;;;23.38;8.45;;;;;;;;;;4405257;32;20261;-84
2022/08/21 06:40:10;;;;;;;11.25;7.57;;;;;;;;;;4405461;32;20552;-84
2022/08/21 06:42:37;;;;;;;11.88;8.13;;;;;;;;;;4405375;32;20666;-86
2022/08/21 06:45:06;;;;;;;9.45;7.60;;;;;;;;;;4405217;32;20671;-85
2022/08/21 06:47:33;;;;;;;12.65;7.03;;;;;;;;;;4405346;32;20584;-88
2022/08/21 06:50:04;;;;;;;14.18;7.55;;;;;;;;;;4405143;32;20548;-84
2022/08/21 06:52:31;;;;;;;14.32;7.12;;;;;;;;;;4405263;32;20562;-85
2022/08/21 06:54:59;;;;;;;16.05;6.68;;;;;;;;;;4405035;32;20305;-84
2022/08/21 06:57:26;;;;;;;13.70;9.13;;;;;;;;;;4405370;32;20231;-84
2022/08/21 06:59:54;;;;;;;13.25;9.85;;;;;;;;;;4404924;32;20607;-84
2022/08/21 07:02:21;;;;;;;13.95;8.80;;;;;;;;;;4404876;32;20594;-83
2022/08/21 07:04:48;;;;;;;21.37;8.32;;;;;;;;;;4404881;32;20508;-82
2022/08/21 07:07:18;;;;;;;11.32;7.65;;;;;;;;;;4404726;32;20569;-84
2022/08/21 07:09:45;;;;;;;11.63;9.55;;;;;;;;;;4404880;32;20262;-85
2022/08/21 07:12:14;;;;;;;12.45;8.32;;;;;;;;;;4403800;32;20547;-86
2022/08/21 07:14:43;;;;;;;8.77;7.25;;;;;;;;;;4405197;32;20626;-85
2022/08/21 07:17:10;;;;;;;12.85;7.57;;;;;;;;;;4404911;32;20324;-84
2022/08/21 07:19:38;;;;;;;14.75;8.27;;;;;;;;;;4405011;32;20579;-85
2022/08/21 07:22:05;;;;;;;12.55;7.00;;;;;;;;;;4404534;32;20614;-85
2022/08/21 07:24:35;;;;;;;18.42;8.68;;;;;;;;;;4404950;32;20548;-85
2022/08/21 07:27:03;;;;;;;11.77;8.70;;;;;;;;;;4404518;32;20659;-85
2022/08/21 07:29:30;;;;;;;8.40;6.68;;;;;;;;;;4405020;32;20344;-84
2022/08/21 07:31:58;;;;;;;11.30;6.87;;;;;;;;;;4404495;32;20759;-82
2022/08/21 07:34:25;;;;;;;7.05;6.15;;;;;;;;;;4404565;32;20536;-82
2022/08/21 07:36:53;;;;;;;10.90;6.55;;;;;;;;;;4404416;32;20615;-83
2022/08/21 07:39:20;;;;;;;8.75;6.97;;;;;;;;;;4404370;32;20580;-82
2022/08/21 07:41:49;;;;;;;12.05;7.25;;;;;;;;;;4404300;32;20679;-82
2022/08/21 07:44:16;;;;;;;10.95;7.20;;;;;;;;;;4404707;32;20503;-82
2022/08/21 07:46:44;;;;;;;15.88;7.10;;;;;;;;;;4404241;32;20268;-82
2022/08/21 07:49:12;;;;;;;9.10;6.82;;;;;;;;;;4404223;32;20210;-82
2022/08/21 07:51:39;;;;;;;11.70;6.18;;;;;;;;;;4404185;32;20570;-83
2022/08/21 07:54:08;;;;;;;10.80;6.95;;;;;;;;;;4404207;32;20300;-82
2022/08/21 07:56:36;;;;;;;11.27;7.18;;;;;;;;;;4404237;32;20583;-83
2022/08/21 07:59:04;;;;;;;21.08;6.95;;;;;;;;;;4403536;32;20500;-82
2022/08/21 08:01:32;;;;;;;7.22;6.53;;;;;;;;;;4404312;32;20555;-83
2022/08/21 08:04:00;;;;;;;8.07;6.62;;;;;;;;;;4404388;32;20610;-83
2022/08/21 08:06:30;;;;;;;17.37;8.75;;;;;;;;;;4404216;32;20653;-84
2022/08/21 08:08:57;;;;;;;8.93;6.28;;;;;;;;;;4404576;32;20832;-83
2022/08/21 08:11:25;;;;;;;13.10;6.45;;;;;;;;;;4404093;32;20574;-84
2022/08/21 08:13:53;;;;;;;6.65;5.60;;;;;;;;;;4404579;32;20221;-83
2022/08/21 08:16:22;;;;;;;17.50;6.18;;;;;;;;;;4404107;32;20640;-83
2022/08/21 08:18:51;;;;;;;8.23;6.18;;;;;;;;;;4404062;32;20593;-83
2022/08/21 08:21:20;;;;;;;6.70;5.80;;;;;;;;;;4404086;32;20664;-83
2022/08/21 08:23:48;;;;;;;13.95;6.78;;;;;;;;;;4404234;32;20733;-83
2022/08/21 08:26:16;;;;;;;12.88;5.87;;;;;;;;;;4403765;32;20662;-82
2022/08/21 08:28:46;;;;;;;7.60;5.55;;;;;;;;;;4402994;32;20672;-84
2022/08/21 08:31:14;;;;;;;10.60;4.97;;;;;;;;;;4403893;32;20651;-83
2022/08/21 08:33:43;;;;;;;16.10;6.35;;;;;;;;;;4403921;32;20253;-83
2022/08/21 08:36:16;;;;;;;9.90;5.47;;;;;;;;;;4403717;32;20558;-83
2022/08/21 08:38:43;;;;;;;10.52;5.57;;;;;;;;;;4404470;32;20611;-83
2022/08/21 08:41:15;;;;;;;11.05;5.30;;;;;;;;;;4403903;32;20639;-83
2022/08/21 08:43:49;;;;;;;9.52;6.22;;;;;;;;;;4403590;32;20538;-83
2022/08/21 08:46:20;;;;;;;6.43;5.05;;;;;;;;;;4403680;32;20698;-83
2022/08/21 08:48:54;;;;;;;7.68;5.57;;;;;;;;;;4403957;32;20290;-83
2022/08/21 08:51:26;;;;;;;12.57;6.18;;;;;;;;;;4403697;32;20605;-83
2022/08/21 08:53:58;;;;;;;9.60;5.97;;;;;;;;;;4404212;32;20576;-83
2022/08/21 08:56:30;;;;;;;12.98;5.70;;;;;;;;;;4403858;32;20572;-83
2022/08/21 08:59:09;;;;;;;13.68;6.10;;;;;;;;;;4403617;32;20645;-83
2022/08/21 09:01:37;;;;;;;7.50;5.53;;;;;;;;;;4403683;32;20317;-82
2022/08/21 09:04:06;;;;;;;7.95;6.22;;;;;;;;;;4403729;32;20250;-82
2022/08/21 09:06:47;;;;;;;11.95;5.45;;;;;;;;;;4403431;32;20653;-82
2022/08/21 09:09:31;;;;;;;7.68;4.95;;;;;;;;;;4403918;32;20547;-83
2022/08/21 09:12:03;;;;;;;9.60;4.70;;;;;;;;;;4403446;32;20752;-83
2022/08/21 09:14:47;;;;;;;14.20;5.55;;;;;;;;;;4403489;32;20532;-83
2022/08/21 09:17:28;;;;;;;8.98;4.20;;;;;;;;;;4403548;32;20654;-83
2022/08/21 09:20:13;;;;;;;8.15;4.22;;;;;;;;;;4404636;32;20584;-83
2022/08/21 09:22:51;;;;;;;10.52;3.97;;;;;;;;;;4408477;32;20594;-84
2022/08/21 09:25:23;;;;;;;6.60;4.35;;;;;;;;;;4404453;32;20546;-83
2022/08/21 09:27:51;;;;;;;8.07;4.80;;;;;;;;;;4404327;32;20570;-83
2022/08/21 09:30:22;;;;;;;8.60;4.68;;;;;;;;;;4404455;32;20233;-83
2022/08/21 09:32:49;;;;;;;6.28;4.93;;;;;;;;;;4404702;32;20574;-83
2022/08/21 09:35:21;;;;;;;8.82;5.18;;;;;;;;;;4406672;32;20366;-83
2022/08/21 09:40:34;;;;;;;10.48;4.97;;;;;;;;;;4388119;32;20274;-82
2022/08/21 09:43:05;;;;;;;9.57;5.03;;;;;;;;;;4388771;32;20230;-81
2022/08/21 09:45:36;;;;;;;7.97;4.78;;;;;;;;;;4389986;32;20198;-81
2022/08/21 09:48:13;;;;;;;9.23;5.55;;;;;;;;;;4384229;32;20595;-80
2022/08/21 09:50:43;;;;;;;13.73;6.72;;;;;;;;;;4383363;32;20256;-83
2022/08/21 09:53:22;;;;;;;6.65;4.95;;;;;;;;;;4389333;32;20218;-84
2022/08/21 09:58:42;;;;;;;17.30;5.90;;;;;;;;;;4377769;32;20654;-85
2022/08/21 10:01:16;;;;;;;10.73;5.00;;;;;;;;;;4373498;32;20632;-85
2022/08/21 10:03:44;;;;;;;10.73;4.45;;;;;;;;;;4373923;32;20576;-85
2022/08/21 10:06:25;;;;;;;8.88;4.72;;;;;;;;;;4374575;32;20717;-85
2022/08/21 10:09:12;;;;;;;8.10;4.10;;;;;;;;;;4375280;32;20391;-85
2022/08/21 10:11:45;;;;;;;9.27;4.68;;;;;;;;;;4377549;32;20219;-85
2022/08/21 10:14:23;;;;;;;7.45;3.72;;;;;;;;;;4377364;32;20269;-85
2022/08/21 10:17:02;;;;;;;6.47;3.95;;;;;;;;;;4380293;32;20198;-86
2022/08/21 10:19:40;;;;;;;10.88;4.57;;;;;;;;;;4381014;32;20659;-85
2022/08/21 10:22:20;;;;;;;11.32;4.50;;;;;;;;;;4377306;32;20690;-84
2022/08/21 10:24:57;;;;;;;12.32;4.47;;;;;;;;;;4377663;32;20253;-85
2022/08/21 10:27:35;;;;;;;9.52;4.22;;;;;;;;;;4376536;32;20233;-82
2022/08/21 10:30:09;;;;;;;13.38;4.60;;;;;;;;;;4376596;32;20309;-83
2022/08/21 10:32:59;;;;;;;11.05;5.32;;;;;;;;;;4375576;32;20598;-81
2022/08/21 10:35:31;;;;;;;10.57;5.57;;;;;;;;;;4375746;32;20555;-83
2022/08/21 10:38:39;;;;;;;12.73;5.03;;;;;;;;;;4375104;32;20272;-81
2022/08/21 10:41:19;;;;;;;8.73;5.45;;;;;;;;;;4370680;32;20324;-82
2022/08/21 10:43:57;;;;;;;20.60;7.82;;;;;;;;;;4375040;32;20612;-82
2022/08/21 10:46:38;;;;;;;9.05;5.75;;;;;;;;;;4375373;32;20582;-82
2022/08/21 10:49:18;;;;;;;14.43;6.62;;;;;;;;;;4374916;32;20269;-81
2022/08/21 10:51:56;;;;;;;15.77;6.57;;;;;;;;;;4375048;32;20258;-82
2022/08/21 10:54:34;;;;;;;13.50;6.82;;;;;;;;;;4374936;32;20601;-82
2022/08/21 10:57:10;;;;;;;14.95;7.28;;;;;;;;;;4374859;32;20599;-82
2022/08/21 10:59:45;;;;;;;9.25;6.43;;;;;;;;;;4374976;32;20520;-82
2022/08/21 11:02:20;;;;;;;13.30;7.22;;;;;;;;;;4374923;32;20577;-82
2022/08/21 11:04:55;;;;;;;13.85;5.82;;;;;;;;;;4374841;32;20650;-82
2022/08/21 11:07:28;;;;;;;13.80;6.60;;;;;;;;;;4374843;32;20527;-83
2022/08/21 11:09:59;;;;;;;13.75;6.72;;;;;;;;;;4374861;32;20550;-82
2022/08/21 11:12:39;;;;;;;11.82;7.37;;;;;;;;;;4375098;32;20611;-82
2022/08/21 11:15:17;;;;;;;9.38;6.78;;;;;;;;;;4375196;32;20610;-82
2022/08/21 11:17:57;;;;;;;11.05;6.57;;;;;;;;;;4374866;32;20659;-82
2022/08/21 11:20:34;;;;;;;10.82;6.68;;;;;;;;;;4374695;32;20574;-81
2022/08/21 11:23:08;;;;;;;11.38;5.97;;;;;;;;;;4374676;32;20286;-82
2022/08/21 11:25:38;;;;;;;11.40;6.43;;;;;;;;;;4374441;32;20614;-82
2022/08/21 11:28:14;;;;;;;11.55;6.47;;;;;;;;;;4374343;32;20626;-84
2022/08/21 11:30:48;;;;;;;10.57;6.18;;;;;;;;;;4374492;32;20532;-83
2022/08/21 11:33:32;;;;;;;13.07;7.22;;;;;;;;;;4374457;32;20403;-82
2022/08/21 11:36:11;;;;;;;12.85;7.10;;;;;;;;;;4374443;32;20532;-84
2022/08/21 11:38:43;;;;;;;12.93;6.70;;;;;;;;;;4374182;32;20703;-83
2022/08/21 11:41:24;;;;;;;8.35;5.35;;;;;;;;;;4374543;32;20587;-81
2022/08/21 11:43:59;;;;;;;7.97;4.47;;;;;;;;;;4374018;32;20250;-81
2022/08/21 11:46:34;;;;;;;7.95;4.78;;;;;;;;;;4374861;32;20543;-80
2022/08/21 11:49:15;;;;;;;9.77;5.05;;;;;;;;;;4374300;32;20294;-81
2022/08/21 11:51:48;;;;;;;9.68;4.70;;;;;;;;;;4374452;32;20347;-80
2022/08/21 11:54:25;;;;;;;7.90;4.47;;;;;;;;;;4374254;32;20332;-81
2022/08/21 11:56:59;;;;;;;13.38;4.72;;;;;;;;;;4374214;32;20586;-81
2022/08/21 11:59:38;;;;;;;10.15;4.97;;;;;;;;;;4374083;32;20259;-81
2022/08/21 12:02:11;;;;;;;7.60;5.53;;;;;;;;;;4373988;32;20257;-83
2022/08/21 12:04:47;;;;;;;8.80;4.90;;;;;;;;;;4374082;32;20289;-81
2022/08/21 12:07:16;;;;;;;9.80;5.15;;;;;;;;;;4373995;32;20520;-82
2022/08/21 12:09:55;;;;;;;10.45;5.50;;;;;;;;;;4374066;32;20714;-83
2022/08/21 12:12:29;;;;;;;9.05;4.72;;;;;;;;;;4373942;32;20629;-82
2022/08/21 12:15:16;;;;;;;8.60;5.03;;;;;;;;;;4373765;32;20580;-82
2022/08/21 12:17:56;;;;;;;11.40;5.43;;;;;;;;;;4374066;32;20320;-83
2022/08/21 12:20:34;;;;;;;14.15;5.20;;;;;;;;;;4374060;32;20631;-82
2022/08/21 12:23:16;;;;;;;11.75;5.53;;;;;;;;;;4373907;32;20493;-82
2022/08/21 12:25:45;;;;;;;14.00;5.72;;;;;;;;;;4373820;32;20772;-82
2022/08/21 12:28:16;;;;;;;17.60;6.50;;;;;;;;;;4373759;32;20544;-81
2022/08/21 12:30:47;;;;;;;10.32;6.10;;;;;;;;;;4373515;32;20789;-82
2022/08/21 12:33:27;;;;;;;9.70;5.70;;;;;;;;;;4373813;32;20599;-83
2022/08/21 12:36:05;;;;;;;6.65;3.92;;;;;;;;;;4373430;32;20601;-82
2022/08/21 12:38:45;;;;;;;9.18;4.87;;;;;;;;;;4373599;32;20690;-82
2022/08/21 12:41:18;;;;;;;10.63;5.82;;;;;;;;;;4373465;32;20567;-82
2022/08/21 12:43:52;;;;;;;9.38;5.07;;;;;;;;;;4373917;32;20602;-82
2022/08/21 12:46:29;;;;;;;12.43;5.78;;;;;;;;;;4373266;32;20549;-82
2022/08/21 12:49:01;;;;;;;14.25;6.05;;;;;;;;;;4373737;32;20625;-82
2022/08/21 12:51:34;;;;;;;5.90;4.70;;;;;;;;;;4373295;32;20373;-81
2022/08/21 12:54:02;;;;;;;17.62;5.97;;;;;;;;;;4373340;32;20576;-82
2022/08/21 12:56:34;;;;;;;9.85;5.50;;;;;;;;;;4373106;32;20521;-82
2022/08/21 12:59:05;;;;;;;12.15;5.32;;;;;;;;;;4373680;32;20619;-85
2022/08/21 13:01:37;;;;;;;9.93;5.37;;;;;;;;;;4373120;32;20580;-84
2022/08/21 13:04:11;;;;;;;17.83;6.47;;;;;;;;;;4373336;32;20622;-82
2022/08/21 13:06:43;;;;;;;9.07;6.90;;;;;;;;;;4373213;32;20774;-82
2022/08/21 13:09:14;;;;;;;13.85;8.25;;;;;;;;;;4373307;32;20277;-82
2022/08/21 13:11:43;;;;;;;11.77;8.88;;;;;;;;;;4373116;32;20651;-82
2022/08/21 13:14:19;;;;;;;12.93;9.50;;;;;;;;;;4373234;32;20596;-81
2022/08/21 13:16:49;;;;;;;15.52;9.98;;;;;;;;;;4373117;32;20581;-82
2022/08/21 13:19:20;;;;;;;11.10;9.13;;;;;;;;;;4373163;32;20563;-82
2022/08/21 13:21:47;;;;;;;16.65;9.77;;;;;;;;;;4373358;32;20594;-82
2022/08/21 13:24:18;;;;;;;12.85;9.27;;;;;;;;;;4372903;32;20504;-84
2022/08/21 13:26:46;;;;;;;18.62;9.55;;;;;;;;;;4373036;32;20567;-82
2022/08/21 13:29:19;;;;;;;13.70;9.05;;;;;;;;;;4373202;32;20550;-81
2022/08/21 13:31:52;;;;;;;14.32;9.65;;;;;;;;;;4373097;32;20634;-81
2022/08/21 13:34:22;;;;;;;20.40;10.10;;;;;;;;;;4373104;32;20515;-84
2022/08/21 13:36:48;;;;;;;16.92;8.23;;;;;;;;;;4372951;32;20572;-82
2022/08/21 13:39:19;;;;;;;12.02;7.95;;;;;;;;;;4373152;32;20630;-88
2022/08/21 13:41:51;;;;;;;11.65;8.38;;;;;;;;;;4373076;32;20661;-86
2022/08/21 13:44:26;;;;;;;12.32;7.60;;;;;;;;;;4373793;32;20629;-88
2022/08/21 13:46:55;;;;;;;17.70;7.65;;;;;;;;;;4359610;32;20692;-89
2022/08/21 13:49:34;;;;;;;13.57;7.32;;;;;;;;;;4373756;32;20615;-89
2022/08/21 13:52:01;;;;;;;18.12;7.50;;;;;;;;;;4373346;32;20701;-88
2022/08/21 13:54:36;;;;;;;15.85;7.93;;;;;;;;;;4373515;32;20513;-88
2022/08/21 13:57:04;;;;;;;12.93;7.68;;;;;;;;;;4373356;32;20767;-87
2022/08/21 13:59:36;;;;;;;19.30;7.75;;;;;;;;;;4375934;32;20624;-87
2022/08/21 14:02:14;;;;;;;17.85;7.68;;;;;;;;;;4375892;32;20297;-84
2022/08/21 14:04:51;;;;;;;16.55;7.87;;;;;;;;;;4376585;32;20598;-86
2022/08/21 14:07:20;;;;;;;15.18;8.10;;;;;;;;;;4375728;32;20716;-85
2022/08/21 14:09:49;;;;;;;17.70;8.98;;;;;;;;;;4375660;32;20527;-86
2022/08/21 14:12:20;;;;;;;14.68;9.45;;;;;;;;;;4375552;32;20285;-86
2022/08/21 14:14:47;;;;;;;15.82;9.48;;;;;;;;;;4375876;32;20589;-85
2022/08/21 14:17:31;;;;;;;12.73;8.93;;;;;;;;;;4375849;32;20574;-85
2022/08/21 14:19:58;;;;;;;23.12;9.82;;;;;;;;;;4375785;32;20221;-83
2022/08/21 14:22:33;;;;;;;14.25;10.43;;;;;;;;;;4375511;32;20549;-82
2022/08/21 14:25:02;;;;;;;16.48;10.20;;;;;;;;;;4375517;32;20409;-83
2022/08/21 14:27:32;;;;;;;23.27;10.02;;;;;;;;;;4375575;32;20242;-82
2022/08/21 14:30:01;;;;;;;17.17;10.60;;;;;;;;;;4375057;32;20528;-84
2022/08/21 14:32:37;;;;;;;18.73;10.73;;;;;;;;;;4375233;32;20300;-82
2022/08/21 14:35:06;;;;;;;16.17;10.75;;;;;;;;;;4375258;32;20523;-83
2022/08/21 14:37:33;;;;;;;17.45;11.55;;;;;;;;;;4375195;32;20485;-83
2022/08/21 14:40:01;;;;;;;13.43;10.30;;;;;;;;;;4375424;32;20523;-83
2022/08/21 14:42:30;;;;;;;13.05;10.30;;;;;;;;;;4374942;32;20541;-83
2022/08/21 14:45:03;;;;;;;17.45;11.02;;;;;;;;;;4375047;32;20524;-84
2022/08/21 14:47:32;;;;;;;14.40;9.98;;;;;;;;;;4362038;32;20631;-82
2022/08/21 14:50:00;;;;;;;13.02;10.40;;;;;;;;;;4375455;32;20560;-83
2022/08/21 14:52:27;;;;;;;14.25;9.63;;;;;;;;;;4375310;32;20552;-82
2022/08/21 14:54:55;;;;;;;18.52;9.57;;;;;;;;;;4374836;32;20664;-81
2022/08/21 14:57:32;;;;;;;13.62;9.40;;;;;;;;;;4374908;32;20634;-83
2022/08/21 15:00:00;;;;;;;15.57;9.27;;;;;;;;;;4375018;32;20502;-83
2022/08/21 15:02:27;;;;;;;10.57;8.85;;;;;;;;;;4374947;32;20657;-83